createdAt,value
2023-05-17T00:01:57.137Z,100.00
2023-05-17T00:04:23.798Z,100.00
2023-05-17T00:06:50.470Z,100.00
2023-05-17T00:09:17.031Z,100.00
2023-05-17T00:11:43.575Z,100.00
2023-05-17T00:14:10.181Z,100.00
2023-05-17T00:16:37.562Z,100.00
2023-05-17T00:19:04.330Z,100.00
2023-05-17T00:21:38.530Z,100.00
2023-05-17T00:24:05.449Z,100.00
2023-05-17T00:26:34.030Z,100.00
2023-05-17T00:29:00.781Z,100.00
2023-05-17T00:31:27.406Z,100.00
2023-05-17T00:33:54.018Z,100.00
2023-05-17T00:36:20.916Z,100.00
2023-05-17T00:38:47.523Z,100.00
2023-05-17T00:41:14.100Z,100.00
2023-05-17T00:43:40.746Z,100.00
2023-05-17T00:46:07.312Z,100.00
2023-05-17T00:48:34.023Z,100.00
2023-05-17T00:51:00.718Z,100.00
2023-05-17T00:53:28.768Z,100.00
2023-05-17T00:55:56.026Z,100.00
2023-05-17T00:58:23.419Z,100.00
2023-05-17T01:00:50.998Z,100.00
2023-05-17T01:03:17.851Z,100.00
2023-05-17T01:05:44.814Z,100.00
2023-05-17T01:08:11.357Z,100.00
2023-05-17T01:10:55.010Z,100.00
2023-05-17T01:13:33.181Z,100.00
2023-05-17T01:16:16.965Z,100.00
2023-05-17T01:18:58.723Z,100.00
2023-05-17T01:21:47.712Z,100.00
2023-05-17T01:24:28.862Z,100.00
2023-05-17T01:26:57.757Z,100.00
2023-05-17T01:29:28.666Z,100.00
2023-05-17T01:31:57.596Z,100.00
2023-05-17T01:34:28.188Z,100.00
2023-05-17T01:36:57.549Z,100.00
2023-05-17T01:39:24.318Z,100.00
2023-05-17T01:41:59.827Z,100.00
2023-05-17T01:44:30.002Z,100.00
2023-05-17T01:47:35.029Z,100.00
2023-05-17T01:50:05.132Z,100.00
2023-05-17T01:52:37.162Z,100.00
2023-05-17T01:55:25.827Z,100.00
2023-05-17T01:57:55.860Z,100.00
2023-05-17T02:00:25.257Z,100.00
2023-05-17T02:02:51.856Z,100.00
2023-05-17T02:05:20.425Z,100.00
2023-05-17T02:07:46.939Z,100.00
2023-05-17T02:10:13.724Z,100.00
2023-05-17T02:12:43.419Z,100.00
2023-05-17T02:15:11.973Z,100.00
2023-05-17T02:17:40.574Z,100.00
2023-05-17T02:20:09.024Z,100.00
2023-05-17T02:22:35.883Z,100.00
2023-05-17T02:25:02.565Z,100.00
2023-05-17T02:27:29.396Z,100.00
2023-05-17T02:29:55.939Z,100.00
2023-05-17T02:32:23.004Z,100.00
2023-05-17T02:34:50.035Z,100.00
2023-05-17T02:37:16.578Z,100.00
2023-05-17T02:39:44.290Z,100.00
2023-05-17T02:42:10.906Z,100.00
2023-05-17T02:44:37.440Z,100.00
2023-05-17T02:47:04.256Z,100.00
2023-05-17T02:49:30.838Z,100.00
2023-05-17T02:51:57.448Z,100.00
2023-05-17T02:54:24.264Z,100.00
2023-05-17T02:56:51.415Z,100.00
2023-05-17T02:59:18.284Z,100.00
2023-05-17T03:01:45.022Z,100.00
2023-05-17T03:04:11.747Z,100.00
2023-05-17T03:06:40.080Z,100.00
2023-05-17T03:09:07.214Z,100.00
2023-05-17T03:11:34.351Z,100.00
2023-05-17T03:14:03.554Z,100.00
2023-05-17T03:16:31.343Z,100.00
2023-05-17T03:18:58.923Z,100.00
2023-05-17T03:21:25.676Z,100.00
2023-05-17T03:23:52.256Z,100.00
2023-05-17T03:26:19.805Z,100.00
2023-05-17T03:28:50.000Z,100.00
2023-05-17T03:31:18.901Z,100.00
2023-05-17T03:33:46.028Z,100.00
2023-05-17T03:36:14.168Z,100.00
2023-05-17T03:38:40.689Z,100.00
2023-05-17T03:41:07.552Z,100.00
2023-05-17T03:43:34.277Z,100.00
2023-05-17T03:46:01.479Z,100.00
2023-05-17T03:48:29.133Z,100.00
2023-05-17T03:50:56.056Z,100.00
2023-05-17T03:53:22.648Z,100.00
2023-05-17T03:55:49.232Z,100.00
2023-05-17T03:58:17.811Z,100.00
2023-05-17T04:00:44.450Z,100.00
2023-05-17T04:03:15.861Z,100.00
2023-05-17T04:05:45.552Z,100.00
2023-05-17T04:08:13.148Z,100.00
2023-05-17T04:10:42.105Z,100.00
2023-05-17T04:13:09.663Z,100.00
2023-05-17T04:15:37.439Z,100.00
2023-05-17T04:18:05.523Z,100.00
2023-05-17T04:20:32.633Z,100.00
2023-05-17T04:22:59.245Z,100.00
2023-05-17T04:25:29.282Z,100.00
2023-05-17T04:27:56.635Z,100.00
2023-05-17T04:30:24.191Z,100.00
2023-05-17T04:32:50.777Z,100.00
2023-05-17T04:35:17.586Z,100.00
2023-05-17T04:37:47.439Z,100.00
2023-05-17T04:40:20.280Z,100.00
2023-05-17T04:42:47.693Z,100.00
2023-05-17T04:45:15.678Z,100.00
2023-05-17T04:47:42.610Z,100.00
2023-05-17T04:50:09.360Z,100.00
2023-05-17T04:52:36.547Z,100.00
2023-05-17T04:55:05.214Z,100.00
2023-05-17T04:57:31.795Z,100.00
2023-05-17T05:00:03.110Z,100.00
2023-05-17T05:02:30.123Z,100.00
2023-05-17T05:04:56.967Z,100.00
2023-05-17T05:07:23.619Z,100.00
2023-05-17T05:09:50.780Z,100.00
2023-05-17T05:12:18.614Z,100.00
2023-05-17T05:14:45.226Z,100.00
2023-05-17T05:17:12.558Z,100.00
2023-05-17T05:19:41.307Z,100.00
2023-05-17T05:22:08.520Z,100.00
2023-05-17T05:24:36.965Z,100.00
2023-05-17T05:27:07.154Z,100.00
2023-05-17T05:29:34.093Z,100.00
2023-05-17T05:32:00.733Z,100.00
2023-05-17T05:34:28.550Z,100.00
2023-05-17T05:36:55.529Z,100.00
2023-05-17T05:39:22.622Z,100.00
2023-05-17T05:41:49.817Z,100.00
2023-05-17T05:44:16.520Z,100.00
2023-05-17T05:46:43.349Z,100.00
2023-05-17T05:49:09.968Z,100.00
2023-05-17T05:51:37.513Z,100.00
2023-05-17T05:54:04.094Z,100.00
2023-05-17T05:56:30.721Z,100.00
2023-05-17T05:58:57.952Z,100.00
2023-05-17T06:01:25.346Z,100.00
2023-05-17T06:03:51.878Z,100.00
2023-05-17T06:06:19.532Z,100.00
2023-05-17T06:08:47.312Z,100.00
2023-05-17T06:11:14.544Z,100.00
2023-05-17T06:13:42.125Z,100.00
2023-05-17T06:16:08.621Z,100.00
2023-05-17T06:18:35.500Z,100.00
2023-05-17T06:21:02.350Z,100.00
2023-05-17T06:23:29.005Z,100.00
2023-05-17T06:25:55.860Z,100.00
2023-05-17T06:28:22.485Z,100.00
2023-05-17T06:30:49.067Z,100.00
2023-05-17T06:33:15.740Z,100.00
2023-05-17T06:35:54.925Z,100.00
2023-05-17T06:38:23.539Z,100.00
2023-05-17T06:40:57.427Z,100.00
2023-05-17T06:43:24.156Z,100.00
2023-05-17T06:45:51.260Z,100.00
2023-05-17T06:48:17.906Z,100.00
2023-05-17T06:50:44.665Z,100.00
2023-05-17T06:53:11.276Z,100.00
2023-05-17T06:55:38.061Z,100.00
2023-05-17T06:58:04.642Z,100.00
2023-05-17T07:00:31.940Z,100.00
2023-05-17T07:03:01.640Z,100.00
2023-05-17T07:05:30.721Z,100.00
2023-05-17T07:08:00.372Z,100.00
2023-05-17T07:10:27.030Z,100.00
2023-05-17T07:12:53.651Z,100.00
2023-05-17T07:15:20.267Z,100.00
2023-05-17T07:17:46.941Z,100.00
2023-05-17T07:20:14.703Z,100.00
2023-05-17T07:22:41.429Z,100.00
2023-05-17T07:25:08.956Z,100.00
2023-05-17T07:27:35.950Z,100.00
2023-05-17T07:30:03.592Z,100.00
2023-05-17T07:32:30.134Z,100.00
2023-05-17T07:34:56.671Z,100.00
2023-05-17T07:37:23.240Z,100.00
2023-05-17T07:39:49.808Z,100.00
2023-05-17T07:42:16.371Z,100.00
2023-05-17T07:44:43.106Z,99.02
2023-05-17T07:47:10.745Z,100.00
2023-05-17T07:49:37.357Z,100.00
2023-05-17T07:52:04.189Z,100.00
2023-05-17T07:54:31.504Z,100.00
2023-05-17T07:56:59.562Z,100.00
2023-05-17T07:59:26.385Z,100.00
2023-05-17T08:01:54.013Z,99.16
2023-05-17T08:04:20.705Z,90.26
2023-05-17T08:06:48.444Z,91.65
2023-05-17T08:09:18.467Z,88.11
2023-05-17T08:11:47.920Z,76.72
2023-05-17T08:14:17.907Z,81.35
2023-05-17T08:16:47.472Z,80.28
2023-05-17T08:19:15.052Z,83.18
2023-05-17T08:21:43.139Z,87.08
2023-05-17T08:24:09.962Z,89.10
2023-05-17T08:26:36.587Z,91.91
2023-05-17T08:29:04.849Z,99.34
2023-05-17T08:31:32.579Z,92.31
2023-05-17T08:33:59.232Z,98.08
2023-05-17T08:36:26.122Z,91.38
2023-05-17T08:38:52.704Z,93.36
2023-05-17T08:41:20.723Z,91.24
2023-05-17T08:43:50.983Z,91.79
2023-05-17T08:46:21.747Z,85.27
2023-05-17T08:48:52.025Z,90.52
2023-05-17T08:51:20.797Z,85.88
2023-05-17T08:53:48.326Z,91.38
2023-05-17T08:56:18.602Z,83.91
2023-05-17T09:01:19.150Z,91.60
2023-05-17T09:03:49.816Z,95.71
2023-05-17T09:06:23.708Z,90.48
2023-05-17T09:08:55.329Z,86.01
2023-05-17T09:11:27.789Z,88.16
2023-05-17T09:13:57.900Z,90.83
2023-05-17T09:16:25.090Z,80.59
2023-05-17T09:18:56.442Z,86.36
2023-05-17T09:21:24.875Z,85.37
2023-05-17T09:24:02.305Z,88.72
2023-05-17T09:26:39.148Z,86.84
2023-05-17T09:29:13.660Z,87.84
2023-05-17T09:31:41.418Z,85.60
2023-05-17T09:34:08.752Z,85.90
2023-05-17T09:36:37.332Z,84.71
2023-05-17T09:39:06.139Z,71.78
2023-05-17T09:41:43.011Z,79.09
2023-05-17T09:44:11.604Z,77.93
2023-05-17T09:46:41.977Z,81.37
2023-05-17T09:49:09.430Z,79.00
2023-05-17T09:51:37.676Z,84.19
2023-05-17T09:54:06.726Z,81.03
2023-05-17T09:56:35.222Z,88.14
2023-05-17T09:59:02.730Z,81.33
2023-05-17T10:01:31.084Z,85.70
2023-05-17T10:04:04.653Z,82.49
2023-05-17T10:06:44.189Z,69.23
2023-05-17T10:09:14.685Z,69.34
2023-05-17T10:11:46.681Z,61.33
2023-05-17T10:14:18.624Z,67.66
2023-05-17T10:16:45.671Z,67.11
2023-05-17T10:19:13.465Z,71.47
2023-05-17T10:21:41.088Z,60.54
2023-05-17T10:24:08.120Z,66.01
2023-05-17T10:26:35.747Z,67.86
2023-05-17T10:29:04.082Z,68.16
2023-05-17T10:31:36.588Z,73.04
2023-05-17T10:34:05.778Z,68.78
2023-05-17T10:36:33.480Z,66.71
2023-05-17T10:39:00.629Z,62.39
2023-05-17T10:41:32.051Z,62.09
2023-05-17T10:43:59.498Z,70.36
2023-05-17T10:46:26.228Z,60.52
2023-05-17T10:48:55.130Z,64.04
2023-05-17T10:51:39.859Z,66.97
2023-05-17T10:54:18.322Z,61.07
2023-05-17T10:56:49.685Z,64.36
2023-05-17T10:59:24.203Z,53.93
2023-05-17T11:02:07.903Z,52.64
2023-05-17T11:04:40.272Z,62.47
2023-05-17T11:07:22.256Z,65.15
2023-05-17T11:09:55.550Z,62.16
2023-05-17T11:12:54.185Z,63.63
2023-05-17T11:15:25.622Z,60.89
2023-05-17T11:17:56.916Z,65.67
2023-05-17T11:20:26.651Z,58.77
2023-05-17T11:23:07.748Z,62.55
2023-05-17T11:25:37.161Z,65.54
2023-05-17T11:28:20.753Z,66.99
2023-05-17T11:30:51.979Z,62.44
2023-05-17T11:33:29.648Z,58.60
2023-05-17T11:36:06.874Z,57.56
2023-05-17T11:38:34.370Z,58.81
2023-05-17T11:43:49.516Z,61.84
2023-05-17T11:46:21.348Z,56.53
2023-05-17T11:48:50.989Z,56.81
2023-05-17T11:51:20.653Z,61.94
2023-05-17T11:53:49.201Z,65.49
2023-05-17T11:56:16.156Z,64.37
2023-05-17T11:58:43.495Z,57.63
2023-05-17T12:01:10.658Z,62.23
2023-05-17T12:03:37.363Z,59.43
2023-05-17T12:06:10.117Z,64.66
2023-05-17T12:08:39.238Z,57.32
2023-05-17T12:11:07.263Z,59.70
2023-05-17T12:13:35.769Z,57.88
2023-05-17T12:16:07.396Z,60.93
2023-05-17T12:18:45.235Z,59.79
2023-05-17T12:21:15.210Z,67.73
2023-05-17T12:23:44.406Z,65.48
2023-05-17T12:26:15.794Z,59.38
2023-05-17T12:28:54.874Z,59.64
2023-05-17T12:31:29.542Z,59.63
2023-05-17T12:33:59.110Z,54.58
2023-05-17T12:36:29.118Z,51.59
2023-05-17T12:38:56.596Z,53.84
2023-05-17T12:41:26.145Z,55.79
2023-05-17T12:44:02.881Z,58.22
2023-05-17T12:46:40.185Z,54.82
2023-05-17T12:49:08.761Z,55.28
2023-05-17T12:51:45.465Z,59.18
2023-05-17T12:54:28.663Z,57.83
2023-05-17T12:56:55.844Z,63.67
2023-05-17T12:59:25.513Z,60.88
2023-05-17T13:01:57.556Z,63.50
2023-05-17T13:04:32.215Z,59.80
2023-05-17T13:07:04.253Z,60.31
2023-05-17T13:09:34.342Z,58.39
2023-05-17T13:12:07.850Z,58.80
2023-05-17T13:14:46.101Z,58.22
2023-05-17T13:17:19.506Z,58.28
2023-05-17T13:19:46.656Z,60.59
2023-05-17T13:22:15.266Z,57.40
2023-05-17T13:24:43.510Z,56.18
2023-05-17T13:27:11.854Z,55.52
2023-05-17T13:29:41.853Z,57.31
2023-05-17T13:32:10.889Z,58.12
2023-05-17T13:34:38.600Z,57.37
2023-05-17T13:37:08.829Z,62.06
2023-05-17T13:39:39.927Z,62.38
2023-05-17T13:42:09.513Z,60.53
2023-05-17T13:44:38.499Z,60.79
2023-05-17T13:47:05.875Z,61.30
2023-05-17T13:49:33.208Z,59.13
2023-05-17T13:52:00.883Z,61.23
2023-05-17T13:54:27.843Z,60.51
2023-05-17T13:56:55.742Z,56.18
2023-05-17T13:59:22.825Z,58.37
2023-05-17T14:01:49.573Z,58.20
2023-05-17T14:04:16.355Z,54.76
2023-05-17T14:06:42.882Z,59.16
2023-05-17T14:09:10.377Z,62.03
2023-05-17T14:11:37.019Z,60.71
2023-05-17T14:14:04.237Z,59.13
2023-05-17T14:16:31.295Z,58.67
2023-05-17T14:18:57.930Z,59.70
2023-05-17T14:21:25.938Z,59.65
2023-05-17T14:23:52.571Z,58.05
2023-05-17T14:26:19.145Z,58.16
2023-05-17T14:28:45.648Z,59.51
2023-05-17T14:31:12.211Z,59.80
2023-05-17T14:33:38.744Z,58.96
2023-05-17T14:36:05.497Z,57.94
2023-05-17T14:38:32.253Z,56.90
2023-05-17T14:41:00.921Z,58.57
2023-05-17T14:43:28.057Z,59.61
2023-05-17T14:45:54.699Z,58.40
2023-05-17T14:48:21.437Z,56.34
2023-05-17T14:50:48.039Z,56.25
2023-05-17T14:53:14.813Z,55.79
2023-05-17T14:55:41.818Z,56.40
2023-05-17T14:58:08.345Z,58.45
2023-05-17T15:00:35.466Z,57.73
2023-05-17T15:03:02.206Z,58.21
2023-05-17T15:05:29.389Z,58.98
2023-05-17T15:07:56.598Z,58.24
2023-05-17T15:10:23.910Z,59.54
2023-05-17T15:12:50.435Z,58.21
2023-05-17T15:15:17.038Z,61.29
2023-05-17T15:17:43.642Z,59.42
2023-05-17T15:20:10.782Z,56.70
2023-05-17T15:22:37.803Z,59.03
2023-05-17T15:25:05.990Z,60.41
2023-05-17T15:27:32.721Z,61.71
2023-05-17T15:29:59.293Z,60.93
2023-05-17T15:32:26.489Z,61.08
2023-05-17T15:34:53.049Z,62.28
2023-05-17T15:37:19.569Z,60.14
2023-05-17T15:39:46.480Z,64.96
2023-05-17T15:42:13.005Z,61.15
2023-05-17T15:44:39.513Z,59.61
2023-05-17T15:47:06.070Z,58.67
2023-05-17T15:49:33.381Z,59.37
2023-05-17T15:52:00.033Z,63.16
2023-05-17T15:54:26.565Z,64.08
2023-05-17T15:56:53.076Z,64.27
2023-05-17T15:59:19.640Z,64.10
2023-05-17T16:01:46.294Z,62.36
2023-05-17T16:04:13.500Z,60.93
2023-05-17T16:06:41.178Z,62.87
2023-05-17T16:09:07.838Z,63.82
2023-05-17T16:11:34.435Z,65.01
2023-05-17T16:14:01.029Z,64.15
2023-05-17T16:16:27.535Z,64.83
2023-05-17T16:18:54.261Z,64.95
2023-05-17T16:21:20.880Z,66.65
2023-05-17T16:23:47.637Z,65.80
2023-05-17T16:26:14.634Z,68.42
2023-05-17T16:28:41.268Z,68.00
2023-05-17T16:31:08.035Z,67.38
2023-05-17T16:33:35.081Z,68.42
2023-05-17T16:36:03.964Z,68.19
2023-05-17T16:38:30.760Z,69.27
2023-05-17T16:40:57.532Z,66.03
2023-05-17T16:43:24.125Z,65.94
2023-05-17T16:45:52.259Z,67.64
2023-05-17T16:48:19.009Z,67.20
2023-05-17T16:50:45.871Z,68.91
2023-05-17T16:53:12.662Z,64.12
2023-05-17T16:55:39.217Z,65.95
2023-05-17T16:58:06.047Z,68.04
2023-05-17T17:00:32.797Z,69.50
2023-05-17T17:02:59.865Z,72.05
2023-05-17T17:05:30.001Z,69.32
2023-05-17T17:07:57.203Z,67.05
2023-05-17T17:10:23.742Z,69.57
2023-05-17T17:12:50.439Z,69.75
2023-05-17T17:15:17.045Z,70.71
2023-05-17T17:17:45.515Z,69.24
2023-05-17T17:20:12.884Z,73.64
2023-05-17T17:22:39.843Z,74.14
2023-05-17T17:25:07.522Z,72.31
2023-05-17T17:27:34.804Z,73.31
2023-05-17T17:30:02.210Z,73.83
2023-05-17T17:32:28.906Z,74.77
2023-05-17T17:34:55.550Z,70.89
2023-05-17T17:37:22.096Z,73.20
2023-05-17T17:39:48.798Z,73.33
2023-05-17T17:42:15.476Z,77.63
2023-05-17T17:44:42.191Z,75.30
2023-05-17T17:47:08.960Z,75.67
2023-05-17T17:49:36.115Z,75.47
2023-05-17T17:52:02.888Z,76.98
2023-05-17T17:54:29.517Z,74.63
2023-05-17T17:56:56.082Z,75.42
2023-05-17T17:59:22.593Z,78.01
2023-05-17T18:01:49.206Z,77.35
2023-05-17T18:04:16.204Z,77.84
2023-05-17T18:06:43.783Z,77.91
2023-05-17T18:09:10.279Z,81.10
2023-05-17T18:11:37.470Z,80.96
2023-05-17T18:14:04.052Z,81.73
2023-05-17T18:16:30.762Z,82.93
2023-05-17T18:18:57.352Z,79.68
2023-05-17T18:21:24.430Z,81.28
2023-05-17T18:23:51.155Z,83.22
2023-05-17T18:26:17.689Z,82.43
2023-05-17T18:28:44.246Z,82.45
2023-05-17T18:31:11.378Z,85.01
2023-05-17T18:33:37.990Z,87.27
2023-05-17T18:36:04.804Z,89.99
2023-05-17T18:38:31.507Z,90.37
2023-05-17T18:40:57.997Z,86.36
2023-05-17T18:43:24.943Z,85.58
2023-05-17T18:45:51.464Z,86.99
2023-05-17T18:48:18.113Z,89.11
2023-05-17T18:50:44.847Z,86.63
2023-05-17T18:53:12.885Z,86.08
2023-05-17T18:55:39.646Z,87.00
2023-05-17T18:58:06.306Z,89.27
2023-05-17T19:00:33.417Z,88.44
2023-05-17T19:03:00.209Z,89.41
2023-05-17T19:05:26.857Z,89.61
2023-05-17T19:07:53.371Z,89.30
2023-05-17T19:10:20.721Z,91.02
2023-05-17T19:12:47.537Z,90.92
2023-05-17T19:15:14.210Z,91.79
2023-05-17T19:17:40.873Z,93.27
2023-05-17T19:20:08.448Z,94.54
2023-05-17T19:22:35.876Z,94.88
2023-05-17T19:25:02.670Z,95.32
2023-05-17T19:27:29.727Z,96.69
2023-05-17T19:29:56.327Z,96.48
2023-05-17T19:32:22.945Z,97.85
2023-05-17T19:34:49.989Z,97.96
2023-05-17T19:37:16.898Z,99.34
2023-05-17T19:39:43.503Z,100.00
2023-05-17T19:42:11.237Z,99.54
2023-05-17T19:44:37.750Z,99.71
2023-05-17T19:47:04.724Z,100.00
2023-05-17T19:49:31.519Z,100.00
2023-05-17T19:52:01.295Z,100.00
2023-05-17T19:54:30.908Z,100.00
2023-05-17T19:56:58.238Z,100.00
2023-05-17T19:59:25.024Z,100.00
2023-05-17T20:01:51.652Z,100.00
2023-05-17T20:04:18.193Z,100.00
2023-05-17T20:06:44.890Z,100.00
2023-05-17T20:09:11.467Z,100.00
2023-05-17T20:11:38.215Z,100.00
2023-05-17T20:14:04.827Z,100.00
2023-05-17T20:16:31.535Z,100.00
2023-05-17T20:18:58.538Z,100.00
2023-05-17T20:21:26.385Z,100.00
2023-05-17T20:24:00.694Z,100.00
2023-05-17T20:26:31.634Z,100.00
2023-05-17T20:28:59.159Z,100.00
2023-05-17T20:31:27.306Z,100.00
2023-05-17T20:33:54.793Z,100.00
2023-05-17T20:36:21.369Z,100.00
2023-05-17T20:38:47.898Z,100.00
2023-05-17T20:41:15.898Z,100.00
2023-05-17T20:43:46.367Z,100.00
2023-05-17T20:46:13.938Z,100.00
2023-05-17T20:48:42.750Z,100.00
2023-05-17T20:51:10.753Z,100.00
2023-05-17T20:53:38.278Z,100.00
2023-05-17T20:56:06.382Z,100.00
2023-05-17T20:58:33.623Z,100.00
2023-05-17T21:01:01.118Z,100.00
2023-05-17T21:03:33.294Z,100.00
2023-05-17T21:06:05.271Z,100.00
2023-05-17T21:08:32.860Z,100.00
2023-05-17T21:11:00.011Z,100.00
2023-05-17T21:13:27.363Z,100.00
2023-05-17T21:15:54.865Z,100.00
2023-05-17T21:18:23.350Z,100.00
2023-05-17T21:20:51.352Z,100.00
2023-05-17T21:23:18.836Z,100.00
2023-05-17T21:25:45.461Z,100.00
2023-05-17T21:28:12.033Z,100.00
2023-05-17T21:30:38.601Z,100.00
2023-05-17T21:33:05.642Z,100.00
2023-05-17T21:35:32.552Z,100.00
2023-05-17T21:37:59.099Z,100.00
2023-05-17T21:40:25.813Z,100.00
2023-05-17T21:42:52.382Z,100.00
2023-05-17T21:45:18.930Z,100.00
2023-05-17T21:47:45.530Z,100.00
2023-05-17T21:50:12.255Z,100.00
2023-05-17T21:52:38.786Z,100.00
2023-05-17T21:55:06.107Z,100.00
2023-05-17T21:57:36.041Z,100.00
2023-05-17T22:00:04.565Z,100.00
2023-05-17T22:02:35.822Z,100.00
2023-05-17T22:05:02.646Z,100.00
2023-05-17T22:07:29.210Z,100.00
2023-05-17T22:09:55.792Z,100.00
2023-05-17T22:12:25.477Z,100.00
2023-05-17T22:14:56.730Z,100.00
2023-05-17T22:17:39.344Z,100.00
2023-05-17T22:20:11.460Z,100.00
2023-05-17T22:22:38.286Z,100.00
2023-05-17T22:25:05.580Z,100.00
2023-05-17T22:27:32.724Z,100.00
2023-05-17T22:29:59.298Z,100.00
2023-05-17T22:32:25.918Z,100.00
2023-05-17T22:34:53.033Z,100.00
2023-05-17T22:37:22.751Z,100.00
2023-05-17T22:39:49.559Z,100.00
2023-05-17T22:42:16.293Z,100.00
2023-05-17T22:44:42.881Z,100.00
2023-05-17T22:47:14.512Z,100.00
2023-05-17T22:49:41.933Z,100.00
2023-05-17T22:52:09.063Z,100.00
2023-05-17T22:54:37.052Z,100.00
2023-05-17T22:57:04.483Z,100.00
2023-05-17T22:59:32.716Z,100.00
2023-05-17T23:01:59.425Z,100.00
2023-05-17T23:04:26.294Z,100.00
2023-05-17T23:07:03.572Z,100.00
2023-05-17T23:09:30.317Z,100.00
2023-05-17T23:12:00.375Z,100.00
2023-05-17T23:14:27.287Z,100.00
2023-05-17T23:16:54.032Z,100.00
2023-05-17T23:19:21.181Z,100.00
2023-05-17T23:21:48.997Z,100.00
2023-05-17T23:24:15.642Z,100.00
2023-05-17T23:26:42.211Z,100.00
2023-05-17T23:29:10.675Z,100.00
2023-05-17T23:31:37.557Z,100.00
2023-05-17T23:34:04.413Z,100.00
2023-05-17T23:36:30.924Z,100.00
2023-05-17T23:38:57.462Z,100.00
2023-05-17T23:41:25.398Z,100.00
2023-05-17T23:43:52.227Z,100.00
2023-05-17T23:46:19.796Z,100.00
2023-05-17T23:48:52.525Z,100.00
2023-05-17T23:51:20.150Z,100.00
2023-05-17T23:53:48.776Z,100.00
2023-05-17T23:56:19.451Z,100.00
2023-05-17T23:58:46.612Z,100.00
